Archival Weather

Dallas-Fort Worth Intl

Dallas-Fort Worth, Texas (KDFW)

Report from: Thursday, September 21, 2023 1:53 PM CDT
Current time: Sunday, February 25, 2024 4:09 PM CST

Current weather – Weather history – Daily summaries
Weather forecast

Temperature34.4°C (93.9°F)
Heat index38.5°C (101.3°F)
Dew point21.7°C (71.1°F)
Winds 14 kts (7.2 m/s, 16.1 mph) South-Southwest (200°)
Wind gusts 19 kts (9.8 m/s, 21.9 mph)
Visibility10 mi. (16.1 km)
Clouds Few clouds 4,000 ft. (1,219 m)
Few clouds 10,000 ft. (3,048 m)
Ceiling: Broken clouds 25,000 ft. (7,620 m)
Altimeter29.96 in.Hg (1015 mB)
Relative humidity48 %
Density altitude2,541 ft. (775 m)
Sea-level pressure101.4 kPa (1014 mB, 29.93 in.Hg)
Remarks Automated weather observing station with precipitation discriminator
Cumulonimbus clouds observed distant north moving east altocumulus castellanus clouds observed distant northeast
Flight conditions Visual Meteorological Conditions
Raw dataKDFW 211853Z 20014G19KT 10SM FEW040 FEW100 BKN250 34/22 A2996 RMK AO2 SLP136 CB DSNT N MOV E ACC DSNT NE T03440217
An error has occurred. This application may no longer respond until reloaded. Reload 🗙